Quinter, KS

9:15 AM CDT on April 18, 2015 (GMT -0500)
Hill City Municipal | | Change Station
CLOSE
Current Station
Airport
Location: Hill City,
Elevation: 2224 ft
Nearby Weather Stations
Active Advisory: Dense Fog Advisory Active Notice: Public Information Statement

Elev 2224 ft 39.37 °N, 99.83 °W | Updated 5 minutes ago

Mostly Cloudy
Mostly Cloudy
52 °F
Feels Like 52 °F
N
0
Wind Variable Wind from North

Today
High -- | Low -- °F
--% Chance of Precip.
Yesterday
High -- | Low -- °F
Precip. -- in
7:00 AM 8:20 PM
Waning Crescent, 0% visible
Pressure 29.92 in
Visibility 9.0 miles
Clouds Scattered Clouds 900 ft
Overcast 2900 ft
Dew Point 49 °F
Humidity 89%
Rainfall 0.23 in
Snow Depth Not available.
UV 1 out of 12
Pollen 9.80 out of 12
Air Quality Not available.
Flu Activity Sporadic
SPECI KHLC 181410Z AUTO 00000KT 9SM SCT009 OVC029 11/09 A2992 RMK AO2 T01110094 $

More Conditions Fewer Conditions

Pressure 29.92 in
Visibility 9.0 miles
Clouds Scattered Clouds 900 ft
Overcast 2900 ft
Dew Point 49 °F
Humidity 89%
Rainfall 0.23 in
Snow Depth Not available.
UV 1 out of 12
Pollen 9.80 out of 12
Air Quality Not available.
Flu Activity Sporadic
SPECI KHLC 181410Z AUTO 00000KT 9SM SCT009 OVC029 11/09 A2992 RMK AO2 T01110094 $

More Conditions Fewer Conditions

10-Day Weather Forecast

Almanac

Astronomy

Apr. 18, 2015 Rise Set
Actual Time
Civil Twilight
Nautical Twilight
Astronomical Twilight
Moon
Length of Visible Light
Length of Day
Tomorrow will be .
, % of the Moon is Illuminated

Today's Extremes

State Highs State Lows

Community

WunderPhotos

Upload Photos

1,814,409 photos uploaded!

WunderBlogs® & News

Nearby

Air Quality

  Air Quality AQ Index Pollutant
Not available.

Snow Depth

Station Depth Elevation

Earthquake Activity

City Distance Mag. Time & Date
Minimum magnitude displayed is 2.5.

Coastal Water Temperatures

Place Temperature

Stations

Nearby Weather Stations

Station Location Temp. Windchill Dew Point Humidity Wind Precip. Elev Updated Type
                   
Dense Fog Advisory
Statement as of 7:22 AM MDT on April 18, 2015

... Dense fog advisory remains in effect until 9 am MDT /10 am
CDT/ this morning...

* timing/duration... now through mid morning.

* Other impacts... reduced visibilities less than a mile on area
roadways will make driving hazardous.

Precautionary/preparedness actions...

A dense fog advisory means visibility will frequently be one
quarter mile or less in fog. If driving... slow down and be
prepared for sudden drops in visibility... especially near
rivers... creeks and low lying areas. Use your headlights on low
beams and drive defensively.